URSS 231100Z 22003MPS 9999 FEW030 19/13 Q1020 WS ALL RWY R02/010070 R06/010070 NOSIG RMK R06/21003MPS MT OBSC QFE764
QNH:(hPa/inHg/mmHg)1020 / 30.12 / 765
QFE:(hPa/inHg/mmHg)1017 / 30.02 / 763
Temperature19
Dew Point13
Visibility> 10000
Weather
Cloud CoverFEW (3000);
Transition Height1100 m./3700 ft.
Transition LevelFL50
SQUAWK